createdAt,value
2022-09-02T04:00:31.851Z,18.47
2022-09-02T04:01:35.041Z,18.41
2022-09-02T04:02:31.949Z,18.50
2022-09-02T04:03:31.758Z,18.48
2022-09-02T04:04:31.758Z,18.35
2022-09-02T04:05:31.737Z,18.32
2022-09-02T04:06:32.728Z,18.37
2022-09-02T04:07:31.723Z,18.35
2022-09-02T04:08:31.701Z,18.36
2022-09-02T04:09:31.714Z,18.37
2022-09-02T04:10:31.681Z,18.36
2022-09-02T04:11:36.691Z,18.35
2022-09-02T04:12:32.211Z,18.37
2022-09-02T04:13:31.646Z,18.41
2022-09-02T04:14:31.645Z,18.39
2022-09-02T04:15:31.625Z,18.36
2022-09-02T04:16:31.714Z,18.37
2022-09-02T04:17:31.609Z,18.33
2022-09-02T04:18:31.596Z,18.33
2022-09-02T04:19:31.595Z,18.32
2022-09-02T04:20:31.567Z,18.41
2022-09-02T04:21:31.558Z,18.32
2022-09-02T04:22:36.569Z,18.26
2022-09-02T04:23:31.549Z,18.29
2022-09-02T04:24:31.541Z,18.26
2022-09-02T04:25:31.515Z,18.32
2022-09-02T04:26:31.499Z,18.21
2022-09-02T04:27:31.507Z,18.23
2022-09-02T04:28:31.478Z,18.23
2022-09-02T04:29:31.486Z,18.21
2022-09-02T04:30:31.458Z,18.23
2022-09-02T04:31:31.510Z,18.23
2022-09-02T04:32:31.434Z,18.23
2022-09-02T04:33:36.451Z,18.17
2022-09-02T04:34:31.413Z,18.14
2022-09-02T04:35:31.417Z,18.14
2022-09-02T04:36:31.405Z,18.23
2022-09-02T04:37:31.381Z,18.21
2022-09-02T04:38:31.366Z,18.17
2022-09-02T04:39:31.355Z,18.18
2022-09-02T04:40:31.367Z,18.20
2022-09-02T04:41:31.335Z,18.20
2022-09-02T04:42:31.320Z,18.14
2022-09-02T04:43:31.311Z,18.14
2022-09-02T04:44:36.323Z,18.18
2022-09-02T04:45:31.297Z,18.12
2022-09-02T04:46:34.511Z,18.20
2022-09-02T04:47:31.270Z,18.23
2022-09-02T04:48:31.254Z,18.18
2022-09-02T04:49:31.247Z,18.18
2022-09-02T04:50:31.245Z,18.17
2022-09-02T04:51:31.229Z,18.14
2022-09-02T04:52:31.210Z,18.14
2022-09-02T04:53:31.205Z,18.15
2022-09-02T04:54:31.192Z,18.08
2022-09-02T04:55:36.215Z,18.11
2022-09-02T04:56:31.166Z,18.17
2022-09-02T04:57:31.155Z,18.23
2022-09-02T04:58:31.141Z,18.17
2022-09-02T04:59:31.134Z,18.26
2022-09-02T05:00:31.133Z,18.25
2022-09-02T05:01:31.167Z,18.25
2022-09-02T05:02:31.152Z,18.21
2022-09-02T05:03:31.088Z,18.29
2022-09-02T05:04:31.076Z,18.29
2022-09-02T05:05:31.082Z,18.36
2022-09-02T05:06:39.515Z,18.35
2022-09-02T05:07:32.045Z,18.35
2022-09-02T05:08:31.031Z,18.35
2022-09-02T05:09:31.021Z,18.39
2022-09-02T05:10:31.027Z,18.47
2022-09-02T05:11:31.002Z,18.39
2022-09-02T05:12:30.990Z,18.39
2022-09-02T05:13:30.976Z,18.33
2022-09-02T05:14:30.995Z,18.20
2022-09-02T05:15:31.065Z,18.20
2022-09-02T05:16:30.945Z,18.21
2022-09-02T05:17:35.955Z,18.32
2022-09-02T05:18:30.919Z,18.30
2022-09-02T05:19:30.913Z,18.36
2022-09-02T05:20:30.909Z,18.33
2022-09-02T05:21:30.896Z,18.32
2022-09-02T05:22:30.876Z,18.35
2022-09-02T05:23:30.874Z,18.35
2022-09-02T05:24:30.851Z,18.32
2022-09-02T05:25:30.855Z,18.26
2022-09-02T05:26:30.829Z,18.30
2022-09-02T05:27:30.820Z,18.17
2022-09-02T05:28:35.828Z,18.11
2022-09-02T05:29:30.799Z,18.14
2022-09-02T05:30:30.800Z,18.18
2022-09-02T05:31:30.867Z,18.17
2022-09-02T05:32:34.372Z,18.17
2022-09-02T05:33:31.763Z,18.26
2022-09-02T05:34:30.741Z,18.14
2022-09-02T05:35:30.740Z,18.08
2022-09-02T05:36:30.723Z,18.08
2022-09-02T05:37:30.709Z,18.18
2022-09-02T05:38:30.695Z,18.18
2022-09-02T05:39:35.713Z,18.17
2022-09-02T05:40:30.767Z,18.17
2022-09-02T05:41:30.683Z,18.23
2022-09-02T05:42:30.652Z,18.36
2022-09-02T05:43:30.642Z,18.42
2022-09-02T05:44:30.627Z,18.62
2022-09-02T05:45:30.638Z,18.81
2022-09-02T05:46:30.692Z,18.80
2022-09-02T05:47:30.597Z,18.98
2022-09-02T05:48:30.588Z,19.14
2022-09-02T05:49:30.574Z,19.36
2022-09-02T05:50:35.593Z,19.54
2022-09-02T05:51:30.551Z,19.65
2022-09-02T05:52:30.540Z,19.66
2022-09-02T05:53:30.531Z,19.63
2022-09-02T05:54:30.540Z,19.71
2022-09-02T05:55:30.520Z,19.71
2022-09-02T05:56:30.502Z,19.84
2022-09-02T05:57:30.487Z,19.76
2022-09-02T05:58:30.486Z,19.69
2022-09-02T05:59:30.487Z,19.55
2022-09-02T06:00:30.464Z,19.46
2022-09-02T06:01:35.547Z,19.31
2022-09-02T06:02:30.560Z,19.25
2022-09-02T06:03:30.428Z,19.23
2022-09-02T06:04:30.412Z,19.16
2022-09-02T06:05:30.416Z,19.18
2022-09-02T06:06:30.389Z,19.32
2022-09-02T06:07:30.376Z,19.33
2022-09-02T06:08:30.368Z,19.36
2022-09-02T06:09:30.355Z,19.32
2022-09-02T06:10:30.362Z,19.22
2022-09-02T06:11:30.335Z,19.19
2022-09-02T06:12:39.349Z,19.06
2022-09-02T06:13:31.310Z,19.11
2022-09-02T06:14:30.318Z,19.21
2022-09-02T06:15:30.356Z,19.33
2022-09-02T06:16:30.276Z,19.32
2022-09-02T06:17:30.280Z,19.44
2022-09-02T06:18:30.255Z,19.56
2022-09-02T06:19:30.248Z,19.58
2022-09-02T06:20:30.252Z,19.59
2022-09-02T06:21:30.222Z,19.56
2022-09-02T06:22:30.209Z,19.58
2022-09-02T06:23:35.231Z,19.61
2022-09-02T06:24:30.187Z,19.66
2022-09-02T06:25:30.178Z,19.66
2022-09-02T06:26:30.176Z,19.74
2022-09-02T06:27:30.155Z,19.80
2022-09-02T06:28:30.161Z,19.83
2022-09-02T06:29:30.135Z,19.84
2022-09-02T06:30:30.159Z,19.84
2022-09-02T06:31:34.379Z,19.86
2022-09-02T06:32:30.102Z,19.73
2022-09-02T06:33:30.095Z,19.69
2022-09-02T06:34:35.103Z,19.81
2022-09-02T06:35:30.068Z,19.73
2022-09-02T06:36:30.066Z,19.71
2022-09-02T06:37:30.056Z,19.76
2022-09-02T06:38:30.033Z,19.81
2022-09-02T06:39:30.023Z,19.94
2022-09-02T06:40:30.075Z,19.84
2022-09-02T06:41:30.009Z,19.88
2022-09-02T06:42:30.026Z,19.84
2022-09-02T06:43:29.980Z,19.98
2022-09-02T06:44:32.528Z,20.13
2022-09-02T06:45:34.988Z,20.21
2022-09-02T06:46:30.054Z,20.23
2022-09-02T06:47:29.935Z,20.35
2022-09-02T06:48:29.936Z,20.59
2022-09-02T06:49:29.914Z,20.50
2022-09-02T06:50:29.909Z,20.55
2022-09-02T06:51:29.888Z,20.67
2022-09-02T06:52:29.902Z,20.85
2022-09-02T06:53:29.868Z,21.22
2022-09-02T06:54:29.856Z,21.25
2022-09-02T06:55:29.901Z,21.28
2022-09-02T06:56:34.857Z,21.22
2022-09-02T06:57:31.321Z,21.07
2022-09-02T06:58:29.820Z,20.80
2022-09-02T06:59:29.801Z,20.97
2022-09-02T07:00:29.799Z,20.97
2022-09-02T07:01:29.884Z,21.03
2022-09-02T07:02:29.764Z,20.92
2022-09-02T07:03:29.761Z,20.85
2022-09-02T07:04:29.768Z,20.70
2022-09-02T07:05:29.746Z,20.61
2022-09-02T07:06:29.742Z,20.66
2022-09-02T07:07:34.736Z,20.72
2022-09-02T07:08:29.697Z,20.61
2022-09-02T07:09:29.689Z,20.72
2022-09-02T07:10:29.712Z,20.64
2022-09-02T07:11:29.670Z,20.50
2022-09-02T07:12:29.657Z,20.52
2022-09-02T07:13:29.646Z,20.54
2022-09-02T07:14:29.631Z,20.52
2022-09-02T07:15:29.640Z,20.42
2022-09-02T07:16:29.646Z,20.50
2022-09-02T07:17:29.600Z,20.33
2022-09-02T07:18:34.611Z,20.51
2022-09-02T07:19:29.578Z,20.55
2022-09-02T07:20:29.565Z,20.55
2022-09-02T07:21:29.571Z,20.64
2022-09-02T07:22:29.551Z,20.58
2022-09-02T07:23:29.551Z,20.66
2022-09-02T07:24:29.523Z,20.62
2022-09-02T07:25:29.517Z,20.72
2022-09-02T07:26:29.514Z,20.73
2022-09-02T07:27:29.489Z,20.76
2022-09-02T07:28:29.476Z,20.77
2022-09-02T07:29:34.490Z,20.79
2022-09-02T07:30:29.516Z,20.80
2022-09-02T07:31:29.461Z,20.87
2022-09-02T07:32:29.432Z,20.94
2022-09-02T07:33:29.425Z,20.95
2022-09-02T07:34:29.415Z,20.97
2022-09-02T07:35:29.404Z,20.80
2022-09-02T07:36:29.413Z,20.67
2022-09-02T07:37:29.378Z,20.67
2022-09-02T07:38:29.369Z,20.62
2022-09-02T07:39:29.361Z,20.61
2022-09-02T07:40:34.408Z,20.72
2022-09-02T07:41:29.345Z,20.73
2022-09-02T07:42:29.325Z,20.66
2022-09-02T07:43:29.316Z,20.72
2022-09-02T07:44:29.313Z,20.79
2022-09-02T07:45:29.292Z,20.84
2022-09-02T07:46:29.394Z,20.84
2022-09-02T07:47:29.268Z,20.82
2022-09-02T07:48:29.262Z,20.84
2022-09-02T07:50:14.466Z,20.91
2022-09-02T07:50:30.234Z,21.04
2022-09-02T07:51:34.267Z,21.12
2022-09-02T07:52:29.212Z,21.16
2022-09-02T07:53:29.204Z,21.16
2022-09-02T07:54:29.188Z,21.24
2022-09-02T07:55:29.180Z,21.27
2022-09-02T07:56:29.184Z,21.25
2022-09-02T07:57:29.160Z,21.22
2022-09-02T07:58:29.144Z,21.16
2022-09-02T07:59:29.135Z,21.24
2022-09-02T08:00:29.122Z,21.17
2022-09-02T08:01:29.348Z,21.19
2022-09-02T08:02:34.144Z,21.14
2022-09-02T08:03:29.095Z,21.22
2022-09-02T08:04:29.077Z,21.24
2022-09-02T08:05:29.072Z,21.28
2022-09-02T08:06:34.935Z,21.28
2022-09-02T08:07:30.045Z,21.24
2022-09-02T08:08:29.037Z,21.21
2022-09-02T08:09:29.024Z,21.29
2022-09-02T08:10:29.010Z,21.35
2022-09-02T08:11:29.013Z,21.35
2022-09-02T08:12:28.989Z,21.32
2022-09-02T08:13:34.002Z,21.44
2022-09-02T08:14:28.973Z,21.49
2022-09-02T08:15:28.956Z,21.44
2022-09-02T08:16:29.207Z,21.43
2022-09-02T08:17:28.935Z,21.42
2022-09-02T08:18:28.927Z,21.61
2022-09-02T08:19:28.912Z,21.67
2022-09-02T08:20:28.904Z,21.83
2022-09-02T08:21:28.899Z,21.83
2022-09-02T08:22:28.889Z,21.96
2022-09-02T08:23:37.486Z,22.21
2022-09-02T08:24:34.877Z,22.55
2022-09-02T08:25:28.844Z,22.55
2022-09-02T08:26:28.851Z,22.49
2022-09-02T08:27:28.822Z,22.42
2022-09-02T08:28:28.812Z,22.27
2022-09-02T08:29:28.803Z,22.22
2022-09-02T08:30:28.790Z,22.21
2022-09-02T08:31:28.825Z,22.24
2022-09-02T08:32:28.773Z,22.24
2022-09-02T08:33:28.803Z,22.17
2022-09-02T08:34:28.747Z,22.03
2022-09-02T08:35:33.763Z,22.07
2022-09-02T08:36:28.733Z,22.06
2022-09-02T08:37:28.724Z,21.92
2022-09-02T08:38:28.701Z,22.05
2022-09-02T08:39:28.691Z,22.03
2022-09-02T08:40:28.709Z,22.15
2022-09-02T08:41:28.684Z,22.03
2022-09-02T08:42:28.657Z,22.00
2022-09-02T08:43:28.666Z,21.92
2022-09-02T08:44:28.636Z,22.05
2022-09-02T08:45:28.671Z,22.02
2022-09-02T08:46:33.646Z,22.18
2022-09-02T08:47:28.601Z,22.20
2022-09-02T08:48:28.592Z,22.36
2022-09-02T08:49:28.583Z,22.42
2022-09-02T08:50:28.572Z,22.39
2022-09-02T08:51:33.783Z,22.52
2022-09-02T08:52:29.549Z,22.51
2022-09-02T08:53:28.552Z,22.61
2022-09-02T08:54:28.566Z,22.62
2022-09-02T08:55:28.525Z,22.54
2022-09-02T08:56:28.522Z,22.55
2022-09-02T08:57:33.513Z,22.60
2022-09-02T08:58:28.482Z,22.61
2022-09-02T08:59:28.504Z,22.70
2022-09-02T09:00:28.461Z,22.64
2022-09-02T09:01:28.544Z,22.72
2022-09-02T09:02:28.518Z,22.76
2022-09-02T09:03:28.429Z,22.75
2022-09-02T09:04:28.416Z,22.64
2022-09-02T09:05:28.409Z,22.61
2022-09-02T09:06:28.407Z,22.76
2022-09-02T09:07:28.421Z,22.80
2022-09-02T09:08:33.397Z,22.75
2022-09-02T09:09:28.361Z,23.00
2022-09-02T09:10:28.352Z,23.01
2022-09-02T09:11:28.358Z,22.98
2022-09-02T09:12:28.332Z,22.85
2022-09-02T09:13:28.322Z,22.92
2022-09-02T09:14:28.316Z,22.95
2022-09-02T09:15:28.295Z,22.98
2022-09-02T09:16:32.046Z,22.95
2022-09-02T09:17:28.284Z,23.07
2022-09-02T09:18:28.265Z,22.94
2022-09-02T09:19:33.273Z,23.00
2022-09-02T09:20:28.250Z,23.05
2022-09-02T09:21:28.234Z,23.13
2022-09-02T09:22:28.232Z,23.33
2022-09-02T09:23:28.501Z,23.53
2022-09-02T09:24:29.195Z,23.68
2022-09-02T09:25:28.188Z,23.91
2022-09-02T09:26:28.174Z,23.93
2022-09-02T09:27:28.174Z,23.70
2022-09-02T09:28:28.151Z,23.68
2022-09-02T09:29:28.140Z,23.75
2022-09-02T09:30:33.156Z,23.78
2022-09-02T09:31:28.146Z,23.69
2022-09-02T09:32:28.118Z,23.72
2022-09-02T09:33:28.101Z,23.70
2022-09-02T09:34:28.086Z,23.68
2022-09-02T09:35:28.075Z,23.58
2022-09-02T09:36:28.064Z,23.54
2022-09-02T09:37:30.720Z,23.57
2022-09-02T09:38:28.045Z,23.69
2022-09-02T09:39:28.030Z,23.78
2022-09-02T09:40:28.082Z,23.87
2022-09-02T09:41:33.029Z,24.02
2022-09-02T09:42:28.033Z,24.18
2022-09-02T09:43:28.053Z,24.28
2022-09-02T09:44:27.975Z,24.34
2022-09-02T09:45:28.046Z,24.10
2022-09-02T09:46:27.960Z,24.00
2022-09-02T09:47:27.953Z,23.98
2022-09-02T09:48:27.959Z,23.93
2022-09-02T09:49:27.920Z,23.98
2022-09-02T09:50:27.926Z,23.90
2022-09-02T09:51:27.899Z,23.93
2022-09-02T09:52:32.934Z,23.83
2022-09-02T09:53:27.884Z,23.79
2022-09-02T09:54:27.871Z,23.72
2022-09-02T09:55:27.873Z,23.76
2022-09-02T09:56:27.844Z,23.75
2022-09-02T09:57:31.469Z,23.73
2022-09-02T09:58:28.828Z,23.69
2022-09-02T09:59:27.816Z,23.66
2022-09-02T10:00:27.800Z,23.69
2022-09-02T10:01:27.910Z,23.94
2022-09-02T10:02:27.872Z,23.87
2022-09-02T10:03:32.914Z,23.72
2022-09-02T10:04:44.010Z,23.66
2022-09-02T10:05:28.743Z,23.60
2022-09-02T10:06:27.738Z,23.57
2022-09-02T10:07:27.735Z,23.80
2022-09-02T10:08:27.734Z,23.76
2022-09-02T10:09:27.701Z,23.84
2022-09-02T10:10:27.698Z,23.87
2022-09-02T10:11:27.686Z,23.83
2022-09-02T10:12:27.679Z,23.72
2022-09-02T10:13:27.665Z,23.78
2022-09-02T10:14:32.683Z,23.88
2022-09-02T10:15:27.638Z,23.97
2022-09-02T10:16:27.678Z,23.90
2022-09-02T10:17:27.634Z,23.94
2022-09-02T10:18:27.604Z,23.95
2022-09-02T10:19:27.590Z,24.12
2022-09-02T10:20:27.581Z,24.16
2022-09-02T10:21:27.568Z,24.05
2022-09-02T10:22:38.482Z,24.25
2022-09-02T10:23:28.549Z,24.24
2022-09-02T10:24:27.537Z,23.95
2022-09-02T10:25:32.567Z,23.87
2022-09-02T10:26:27.518Z,23.88
2022-09-02T10:27:27.540Z,24.02
2022-09-02T10:28:27.495Z,23.98
2022-09-02T10:29:27.484Z,24.10
2022-09-02T10:30:27.471Z,24.10
2022-09-02T10:31:27.523Z,24.02
2022-09-02T10:32:27.466Z,24.09
2022-09-02T10:33:27.490Z,24.05
2022-09-02T10:34:27.439Z,24.10
2022-09-02T10:35:27.415Z,24.18
2022-09-02T10:36:32.513Z,24.27
2022-09-02T10:37:27.411Z,24.42
2022-09-02T10:38:27.387Z,24.52
2022-09-02T10:39:27.372Z,24.30
2022-09-02T10:40:27.501Z,24.35
2022-09-02T10:41:27.356Z,24.32
2022-09-02T10:42:27.354Z,24.31
2022-09-02T10:43:27.327Z,24.43
2022-09-02T10:44:27.323Z,24.37
2022-09-02T10:45:27.304Z,24.46
2022-09-02T10:46:27.348Z,24.65
2022-09-02T10:47:32.317Z,24.67
2022-09-02T10:48:27.274Z,24.62
2022-09-02T10:49:27.264Z,24.32
2022-09-02T10:50:27.260Z,24.34
2022-09-02T10:51:27.245Z,24.46
2022-09-02T10:52:27.249Z,24.61
2022-09-02T10:53:27.218Z,24.80
2022-09-02T10:54:27.211Z,24.90
2022-09-02T10:55:27.196Z,24.85
2022-09-02T10:56:27.188Z,24.71
2022-09-02T10:57:27.195Z,24.49
2022-09-02T10:58:32.189Z,24.52
2022-09-02T10:59:27.156Z,24.71
2022-09-02T11:00:27.162Z,24.67
2022-09-02T11:01:27.132Z,24.69
2022-09-02T11:02:27.148Z,24.76
2022-09-02T11:03:27.135Z,24.64
2022-09-02T11:04:27.101Z,24.67
2022-09-02T11:05:27.107Z,24.49
2022-09-02T11:06:31.796Z,24.47
2022-09-02T11:07:28.075Z,24.45
2022-09-02T11:08:31.369Z,24.43
2022-09-02T11:09:32.073Z,24.42
2022-09-02T11:10:27.037Z,24.49
2022-09-02T11:11:27.022Z,24.57
2022-09-02T11:12:27.023Z,24.55
2022-09-02T11:13:26.999Z,24.53
2022-09-02T11:14:26.991Z,24.50
2022-09-02T11:15:26.991Z,24.60
2022-09-02T11:16:27.079Z,24.76
2022-09-02T11:17:26.967Z,24.77
2022-09-02T11:18:27.030Z,24.76
2022-09-02T11:19:26.933Z,24.81
2022-09-02T11:20:31.954Z,24.80
2022-09-02T11:21:31.912Z,24.80
2022-09-02T11:22:27.912Z,24.47
2022-09-02T11:23:26.890Z,24.40
2022-09-02T11:24:26.883Z,24.46
2022-09-02T11:25:26.868Z,24.60
2022-09-02T11:26:26.867Z,24.65
2022-09-02T11:27:41.479Z,24.60
2022-09-02T11:28:27.845Z,24.57
2022-09-02T11:29:26.825Z,24.46
2022-09-02T11:30:26.815Z,24.49
2022-09-02T11:31:32.904Z,24.47
2022-09-02T11:32:26.801Z,24.46
2022-09-02T11:33:26.802Z,24.43
2022-09-02T11:34:26.770Z,24.64
2022-09-02T11:35:26.760Z,24.87
2022-09-02T11:36:30.950Z,25.27
2022-09-02T11:37:27.757Z,25.58
2022-09-02T11:38:26.736Z,25.77
2022-09-02T11:39:36.622Z,26.06
2022-09-02T11:40:36.668Z,26.26
2022-09-02T11:41:36.731Z,26.47
2022-09-02T11:42:32.711Z,26.35
2022-09-02T11:43:26.714Z,26.32
2022-09-02T11:44:29.381Z,26.10
2022-09-02T11:45:26.707Z,25.91
2022-09-02T11:46:26.678Z,25.76
2022-09-02T11:47:26.636Z,25.50
2022-09-02T11:48:26.630Z,25.50
2022-09-02T11:49:26.715Z,25.52
2022-09-02T11:50:26.625Z,25.50
2022-09-02T11:51:26.586Z,25.46
2022-09-02T11:52:26.578Z,25.39
2022-09-02T11:53:31.597Z,25.25
2022-09-02T11:54:26.558Z,25.20
2022-09-02T11:55:26.553Z,25.25
2022-09-02T11:56:26.537Z,25.28
2022-09-02T11:57:26.519Z,25.28
2022-09-02T11:58:26.520Z,25.27
2022-09-02T11:59:26.499Z,25.28
2022-09-02T12:00:26.491Z,25.27
2022-09-02T12:01:26.479Z,25.24
2022-09-02T12:02:26.483Z,25.35
2022-09-02T12:03:43.057Z,25.27
2022-09-02T12:05:02.730Z,25.52
2022-09-02T12:05:27.498Z,25.79
2022-09-02T12:06:26.546Z,25.88
2022-09-02T12:07:32.010Z,26.39
2022-09-02T12:08:27.415Z,26.95
2022-09-02T12:09:26.399Z,27.09
2022-09-02T12:10:26.390Z,27.90
2022-09-02T12:11:26.368Z,28.44
2022-09-02T12:12:26.363Z,28.86
2022-09-02T12:13:26.360Z,28.95
2022-09-02T12:14:26.338Z,29.08
2022-09-02T12:15:31.347Z,28.76
2022-09-02T12:16:26.442Z,28.59
2022-09-02T12:17:26.339Z,28.44
2022-09-02T12:18:26.474Z,28.46
2022-09-02T12:19:26.322Z,28.30
2022-09-02T12:20:26.275Z,28.33
2022-09-02T12:21:26.264Z,28.66
2022-09-02T12:22:26.252Z,29.05
2022-09-02T12:23:26.254Z,29.67
2022-09-02T12:24:26.452Z,30.16
2022-09-02T12:25:27.025Z,30.45
2022-09-02T12:26:26.215Z,30.70
2022-09-02T12:27:26.198Z,30.53
2022-09-02T12:28:31.482Z,30.23
2022-09-02T12:29:26.200Z,29.90
2022-09-02T12:30:26.195Z,30.42
2022-09-02T12:31:26.212Z,29.79
2022-09-02T12:32:26.145Z,29.53
2022-09-02T12:33:26.155Z,29.60
2022-09-02T12:34:26.135Z,29.76
2022-09-02T12:35:26.226Z,29.55
2022-09-02T12:36:26.107Z,29.41
2022-09-02T12:37:26.112Z,28.88
2022-09-02T12:38:26.092Z,29.00
2022-09-02T12:39:26.073Z,29.61
2022-09-02T12:40:26.169Z,29.83
2022-09-02T12:41:32.077Z,30.29
2022-09-02T12:42:26.085Z,30.51
2022-09-02T12:43:26.086Z,30.54
2022-09-02T12:44:26.023Z,29.92
2022-09-02T12:45:29.203Z,29.41
2022-09-02T12:46:26.109Z,29.67
2022-09-02T12:47:25.992Z,29.53
2022-09-02T12:48:38.451Z,29.68
2022-09-02T12:49:26.976Z,30.07
2022-09-02T12:50:25.962Z,30.57
2022-09-02T12:51:25.951Z,30.95
2022-09-02T12:52:25.947Z,30.77
2022-09-02T12:53:25.945Z,30.35
2022-09-02T12:54:30.948Z,30.32
2022-09-02T12:55:25.914Z,29.95
2022-09-02T12:56:25.931Z,30.17
2022-09-02T12:57:25.891Z,30.45
2022-09-02T12:58:25.888Z,30.46
2022-09-02T12:59:25.867Z,30.77
2022-09-02T13:00:25.856Z,29.95
2022-09-02T13:01:26.022Z,29.04
2022-09-02T13:02:28.212Z,28.00
2022-09-02T13:03:25.836Z,27.22
2022-09-02T13:04:25.819Z,26.89
2022-09-02T13:05:30.835Z,26.39
2022-09-02T13:06:25.790Z,26.39
2022-09-02T13:07:25.792Z,26.55
2022-09-02T13:08:25.780Z,26.40
2022-09-02T13:09:25.829Z,26.40
2022-09-02T13:10:25.758Z,26.32
2022-09-02T13:11:25.761Z,26.15
2022-09-02T13:12:25.731Z,25.94
2022-09-02T13:13:25.736Z,26.10
2022-09-02T13:14:25.706Z,26.09
2022-09-02T13:15:25.697Z,25.80
2022-09-02T13:16:30.706Z,25.79
2022-09-02T13:17:36.174Z,25.83
2022-09-02T13:18:26.698Z,25.91
2022-09-02T13:19:25.654Z,25.90
2022-09-02T13:20:25.640Z,26.01
2022-09-02T13:21:25.633Z,25.97
2022-09-02T13:22:25.618Z,25.98
2022-09-02T13:23:31.506Z,25.94
2022-09-02T13:24:26.595Z,25.97
2022-09-02T13:25:25.684Z,25.97
2022-09-02T13:26:47.953Z,25.92
2022-09-02T13:27:26.568Z,25.72
2022-09-02T13:28:25.562Z,25.60
2022-09-02T13:29:30.579Z,25.62
2022-09-02T13:30:25.563Z,25.61
2022-09-02T13:31:25.567Z,25.61
2022-09-02T13:32:25.509Z,25.51
2022-09-02T13:33:25.515Z,25.46
2022-09-02T13:34:25.488Z,25.55
2022-09-02T13:35:25.478Z,25.54
2022-09-02T13:36:25.483Z,25.55
2022-09-02T13:37:25.464Z,25.50
2022-09-02T13:38:25.693Z,25.38
2022-09-02T13:39:25.437Z,25.47
2022-09-02T13:40:25.422Z,25.45
2022-09-02T13:41:25.427Z,25.51
2022-09-02T13:42:32.918Z,25.58
2022-09-02T13:43:26.147Z,25.58
2022-09-02T13:44:25.379Z,25.57
2022-09-02T13:45:25.370Z,25.58
2022-09-02T13:46:25.387Z,25.61
2022-09-02T13:47:25.347Z,25.50
2022-09-02T13:48:25.348Z,25.58
2022-09-02T13:49:25.333Z,25.57
2022-09-02T13:50:25.315Z,25.46
2022-09-02T13:51:25.309Z,25.52
2022-09-02T13:53:19.675Z,25.50
2022-09-02T13:54:11.736Z,25.57
2022-09-02T13:54:26.449Z,25.58
2022-09-02T13:55:25.260Z,25.62
2022-09-02T13:56:25.254Z,25.52
2022-09-02T13:57:25.926Z,25.57
2022-09-02T13:58:25.237Z,25.51
2022-09-02T13:59:25.217Z,25.54
2022-09-02T14:00:25.310Z,25.57
2022-09-02T14:01:25.443Z,25.64
2022-09-02T14:02:25.444Z,25.67
2022-09-02T14:03:25.518Z,25.70
2022-09-02T14:04:30.188Z,25.76
2022-09-02T14:05:25.150Z,25.76
2022-09-02T14:06:25.137Z,25.76
2022-09-02T14:07:25.204Z,25.70
2022-09-02T14:08:25.127Z,25.65
2022-09-02T14:09:25.112Z,25.69
2022-09-02T14:10:25.094Z,25.67
2022-09-02T14:11:25.108Z,25.65
2022-09-02T14:12:25.073Z,25.69
2022-09-02T14:13:25.078Z,25.69
2022-09-02T14:14:25.073Z,25.65
2022-09-02T14:15:30.161Z,25.70
2022-09-02T14:16:25.070Z,25.65
2022-09-02T14:17:25.046Z,25.61
2022-09-02T14:18:25.052Z,25.47
2022-09-02T14:19:24.996Z,25.54
2022-09-02T14:20:24.984Z,25.60
2022-09-02T14:21:24.997Z,25.58
2022-09-02T14:22:24.966Z,25.67
2022-09-02T14:23:24.963Z,25.69
2022-09-02T14:24:24.946Z,25.77
2022-09-02T14:25:27.430Z,25.69
2022-09-02T14:26:29.952Z,25.72
2022-09-02T14:27:24.927Z,25.64
2022-09-02T14:28:24.907Z,25.54
2022-09-02T14:29:24.886Z,25.51
2022-09-02T14:30:24.887Z,25.50
2022-09-02T14:31:24.885Z,25.58
2022-09-02T14:32:24.851Z,25.57
2022-09-02T14:33:24.853Z,25.64
2022-09-02T14:34:24.833Z,25.75
2022-09-02T14:35:24.820Z,25.77
2022-09-02T14:36:24.809Z,25.83
2022-09-02T14:37:29.825Z,25.85
2022-09-02T14:38:24.804Z,25.73
2022-09-02T14:39:24.826Z,25.77
2022-09-02T14:40:24.764Z,25.79
2022-09-02T14:41:24.754Z,25.83
2022-09-02T14:42:28.403Z,25.83
2022-09-02T14:43:24.750Z,25.79
2022-09-02T14:44:24.725Z,25.88
2022-09-02T14:45:24.713Z,25.88
2022-09-02T14:46:24.798Z,25.82
2022-09-02T14:47:24.688Z,25.88
2022-09-02T14:48:29.736Z,25.92
2022-09-02T14:49:24.668Z,25.80
2022-09-02T14:50:24.661Z,25.76
2022-09-02T14:51:24.646Z,25.76
2022-09-02T14:52:24.632Z,25.79
2022-09-02T14:53:24.630Z,25.69
2022-09-02T14:54:24.622Z,25.80
2022-09-02T14:55:24.601Z,25.75
2022-09-02T14:56:24.590Z,25.73
2022-09-02T14:57:24.580Z,25.72
2022-09-02T14:58:27.368Z,25.79
2022-09-02T14:59:29.591Z,25.79
2022-09-02T15:00:24.548Z,25.82
2022-09-02T15:01:24.581Z,25.77
2022-09-02T15:02:24.527Z,25.69
2022-09-02T15:03:24.513Z,25.54
2022-09-02T15:04:24.514Z,25.58
2022-09-02T15:05:24.549Z,25.58
2022-09-02T15:06:24.481Z,25.64
2022-09-02T15:07:24.476Z,25.70
2022-09-02T15:08:24.593Z,25.75
2022-09-02T15:09:24.462Z,25.79
2022-09-02T15:10:29.477Z,25.79
2022-09-02T15:11:24.431Z,25.80
2022-09-02T15:12:24.421Z,25.88
2022-09-02T15:13:24.407Z,25.80
2022-09-02T15:14:24.401Z,25.82
2022-09-02T15:15:24.503Z,25.91
2022-09-02T15:16:24.381Z,25.82
2022-09-02T15:17:24.360Z,25.73
2022-09-02T15:18:24.636Z,25.80
2022-09-02T15:19:24.350Z,25.80
2022-09-02T15:20:24.327Z,25.75
2022-09-02T15:21:29.343Z,25.90
2022-09-02T15:22:24.310Z,25.82
2022-09-02T15:23:24.444Z,25.92
2022-09-02T15:24:24.294Z,25.90
2022-09-02T15:25:24.274Z,25.82
2022-09-02T15:26:24.263Z,25.87
2022-09-02T15:27:24.259Z,25.90
2022-09-02T15:28:24.241Z,25.94
2022-09-02T15:29:28.782Z,25.87
2022-09-02T15:30:24.219Z,25.82
2022-09-02T15:31:24.262Z,25.80
2022-09-02T15:32:29.218Z,25.76
2022-09-02T15:33:24.186Z,25.64
2022-09-02T15:34:24.186Z,25.67
2022-09-02T15:35:24.198Z,25.70
2022-09-02T15:36:24.152Z,25.75
2022-09-02T15:37:24.142Z,25.76
2022-09-02T15:38:24.130Z,25.73
2022-09-02T15:39:24.217Z,25.69
2022-09-02T15:40:24.110Z,25.70
2022-09-02T15:41:24.098Z,25.65
2022-09-02T15:42:24.086Z,25.62
2022-09-02T15:43:29.101Z,25.67
2022-09-02T15:44:24.076Z,25.64
2022-09-02T15:45:24.054Z,25.65
2022-09-02T15:46:24.109Z,25.64
2022-09-02T15:47:24.036Z,25.64
2022-09-02T15:48:24.019Z,25.76
2022-09-02T15:49:24.019Z,25.76
2022-09-02T15:50:24.000Z,25.76
2022-09-02T15:51:23.992Z,25.76
2022-09-02T15:52:24.001Z,25.76
2022-09-02T15:53:24.104Z,25.85
2022-09-02T15:54:29.002Z,25.77
2022-09-02T15:55:29.454Z,25.79
2022-09-02T15:56:24.931Z,25.77
2022-09-02T15:57:23.930Z,25.76
2022-09-02T15:58:23.914Z,25.67
2022-09-02T15:59:23.920Z,25.60
2022-09-02T16:00:23.892Z,25.62
2022-09-02T16:01:25.302Z,25.55
2022-09-02T16:02:23.938Z,25.64
2022-09-02T16:03:23.982Z,25.64
2022-09-02T16:04:23.854Z,25.69
2022-09-02T16:05:28.858Z,25.61
2022-09-02T16:06:23.824Z,25.58
2022-09-02T16:07:23.818Z,25.51
2022-09-02T16:08:23.800Z,25.57
2022-09-02T16:09:23.803Z,25.57
2022-09-02T16:10:23.781Z,25.55
2022-09-02T16:11:23.770Z,25.54
2022-09-02T16:12:23.759Z,25.60
2022-09-02T16:13:23.964Z,25.67
2022-09-02T16:14:23.765Z,25.61
2022-09-02T16:15:23.741Z,25.61
2022-09-02T16:16:28.760Z,25.62
2022-09-02T16:17:23.707Z,25.60
2022-09-02T16:18:23.703Z,25.54
2022-09-02T16:19:23.696Z,25.51
2022-09-02T16:20:23.670Z,25.54
2022-09-02T16:21:23.661Z,25.58
2022-09-02T16:22:23.646Z,25.64
2022-09-02T16:23:23.789Z,25.62
2022-09-02T16:24:23.643Z,25.52
2022-09-02T16:25:23.619Z,25.55
2022-09-02T16:26:23.615Z,25.55
2022-09-02T16:27:28.617Z,25.60
2022-09-02T16:28:23.603Z,25.54
2022-09-02T16:29:23.587Z,25.50
2022-09-02T16:30:23.580Z,25.55
2022-09-02T16:31:23.641Z,25.46
2022-09-02T16:32:27.367Z,25.52
2022-09-02T16:33:23.662Z,25.46
2022-09-02T16:34:23.556Z,25.43
2022-09-02T16:35:23.505Z,25.57
2022-09-02T16:36:23.493Z,25.51
2022-09-02T16:37:23.513Z,25.36
2022-09-02T16:38:28.494Z,25.39
2022-09-02T16:39:23.552Z,25.35
2022-09-02T16:40:23.452Z,25.40
2022-09-02T16:41:23.476Z,25.40
2022-09-02T16:42:24.663Z,25.46
2022-09-02T16:43:23.567Z,25.42
2022-09-02T16:44:23.409Z,25.35
2022-09-02T16:45:23.406Z,25.30
2022-09-02T16:46:23.465Z,25.33
2022-09-02T16:47:23.387Z,25.30
2022-09-02T16:48:25.755Z,25.27
2022-09-02T16:49:28.376Z,25.24
2022-09-02T16:50:23.375Z,25.15
2022-09-02T16:51:23.331Z,25.24
2022-09-02T16:52:23.318Z,25.23